createdAt,value
2022-12-07T00:01:37.337Z,99.90
2022-12-07T00:04:06.804Z,99.90
2022-12-07T00:06:37.663Z,99.90
2022-12-07T00:09:08.547Z,99.90
2022-12-07T00:11:36.645Z,99.90
2022-12-07T00:14:07.619Z,99.90
2022-12-07T00:16:36.603Z,99.90
2022-12-07T00:19:05.274Z,99.90
2022-12-07T00:21:34.825Z,99.90
2022-12-07T00:24:03.654Z,99.90
2022-12-07T00:26:35.011Z,99.90
2022-12-07T00:29:07.043Z,99.90
2022-12-07T00:31:39.750Z,99.90
2022-12-07T00:34:08.768Z,99.90
2022-12-07T00:36:37.268Z,99.90
2022-12-07T00:39:05.501Z,99.90
2022-12-07T00:41:34.876Z,99.90
2022-12-07T00:44:02.906Z,99.90
2022-12-07T00:46:31.123Z,99.90
2022-12-07T00:48:59.460Z,99.90
2022-12-07T00:51:28.142Z,99.90
2022-12-07T00:53:56.583Z,99.90
2022-12-07T00:56:26.193Z,99.90
2022-12-07T00:58:57.784Z,99.90
2022-12-07T01:01:27.990Z,99.90
2022-12-07T01:03:56.485Z,99.90
2022-12-07T01:06:25.703Z,99.90
2022-12-07T01:08:54.656Z,99.90
2022-12-07T01:11:24.658Z,99.90
2022-12-07T01:13:53.394Z,99.90
2022-12-07T01:16:24.845Z,99.90
2022-12-07T01:18:54.848Z,99.90
2022-12-07T01:21:25.018Z,99.90
2022-12-07T01:23:53.835Z,99.90
2022-12-07T01:26:23.918Z,99.90
2022-12-07T01:28:53.791Z,99.90
2022-12-07T01:31:24.641Z,99.90
2022-12-07T01:33:54.743Z,99.90
2022-12-07T01:36:24.721Z,99.90
2022-12-07T01:38:57.401Z,99.90
2022-12-07T01:41:27.464Z,99.90
2022-12-07T01:44:18.837Z,99.90
2022-12-07T01:46:49.601Z,99.90
2022-12-07T01:49:25.256Z,99.90
2022-12-07T01:51:58.925Z,99.90
2022-12-07T01:54:27.740Z,99.90
2022-12-07T01:56:58.149Z,99.90
2022-12-07T01:59:27.965Z,99.90
2022-12-07T02:01:58.303Z,99.90
2022-12-07T02:04:26.799Z,99.90
2022-12-07T02:06:57.779Z,99.90
2022-12-07T02:09:27.761Z,99.90
2022-12-07T02:11:57.011Z,99.90
2022-12-07T02:14:25.185Z,99.90
2022-12-07T02:17:09.650Z,99.90
2022-12-07T02:20:03.370Z,99.90
2022-12-07T02:23:10.033Z,99.90
2022-12-07T02:26:04.473Z,99.90
2022-12-07T02:28:37.140Z,99.90
2022-12-07T02:31:10.889Z,99.90
2022-12-07T02:33:44.187Z,99.90
2022-12-07T02:36:16.429Z,99.90
2022-12-07T02:38:52.112Z,99.90
2022-12-07T02:41:26.970Z,99.90
2022-12-07T02:43:58.172Z,99.90
2022-12-07T02:46:32.010Z,99.90
2022-12-07T02:49:02.127Z,99.90
2022-12-07T02:51:33.355Z,99.90
2022-12-07T02:54:02.070Z,99.90
2022-12-07T02:56:41.948Z,99.90
2022-12-07T02:59:18.685Z,99.90
2022-12-07T03:01:56.098Z,99.90
2022-12-07T03:04:36.253Z,99.90
2022-12-07T03:07:14.185Z,99.90
2022-12-07T03:09:53.528Z,99.90
2022-12-07T03:12:25.988Z,99.90
2022-12-07T03:15:01.710Z,99.90
2022-12-07T03:17:35.716Z,99.90
2022-12-07T03:20:08.652Z,99.90
2022-12-07T03:22:40.487Z,99.90
2022-12-07T03:25:11.480Z,99.90
2022-12-07T03:27:45.577Z,99.90
2022-12-07T03:30:19.139Z,99.90
2022-12-07T03:32:55.268Z,99.90
2022-12-07T03:35:27.534Z,99.90
2022-12-07T03:37:59.290Z,99.90
2022-12-07T03:40:34.614Z,99.90
2022-12-07T03:43:04.747Z,99.90
2022-12-07T03:45:39.211Z,99.90
2022-12-07T03:48:18.309Z,99.90
2022-12-07T03:50:51.813Z,99.90
2022-12-07T03:53:23.637Z,99.90
2022-12-07T03:55:52.585Z,99.90
2022-12-07T03:58:24.032Z,99.90
2022-12-07T04:00:52.880Z,99.90
2022-12-07T04:03:22.548Z,99.90
2022-12-07T04:05:51.079Z,99.90
2022-12-07T04:08:19.722Z,99.90
2022-12-07T04:10:47.806Z,99.90
2022-12-07T04:13:15.804Z,99.90
2022-12-07T04:15:43.990Z,99.90
2022-12-07T04:18:11.984Z,99.90
2022-12-07T04:21:32.470Z,99.90
2022-12-07T04:24:01.877Z,99.90
2022-12-07T04:26:29.889Z,99.90
2022-12-07T04:28:57.948Z,99.90
2022-12-07T04:31:26.157Z,99.90
2022-12-07T04:33:54.306Z,99.90
2022-12-07T04:36:22.514Z,99.90
2022-12-07T04:38:50.525Z,99.90
2022-12-07T04:41:19.903Z,99.90
2022-12-07T04:43:47.880Z,99.90
2022-12-07T04:46:15.982Z,99.90
2022-12-07T04:48:44.050Z,99.90
2022-12-07T04:51:12.063Z,99.90
2022-12-07T04:53:40.118Z,99.90
2022-12-07T04:56:08.525Z,99.60
2022-12-07T04:58:37.896Z,99.70
2022-12-07T05:01:06.007Z,99.20
2022-12-07T05:03:34.100Z,99.30
2022-12-07T05:06:02.143Z,99.60
2022-12-07T05:08:30.248Z,99.60
2022-12-07T05:10:58.382Z,99.70
2022-12-07T05:13:26.568Z,99.60
2022-12-07T05:15:56.142Z,99.80
2022-12-07T05:18:24.153Z,99.90
2022-12-07T05:20:52.777Z,99.90
2022-12-07T05:23:21.342Z,99.90
2022-12-07T05:25:49.437Z,99.90
2022-12-07T05:28:17.533Z,99.90
2022-12-07T05:30:45.619Z,99.90
2022-12-07T05:33:14.966Z,99.90
2022-12-07T05:35:43.028Z,99.90
2022-12-07T05:38:11.060Z,99.90
2022-12-07T05:40:39.307Z,99.90
2022-12-07T05:43:07.597Z,99.90
2022-12-07T05:45:35.645Z,99.90
2022-12-07T05:48:03.817Z,99.90
2022-12-07T05:50:33.199Z,99.90
2022-12-07T05:53:04.280Z,99.90
2022-12-07T05:55:32.592Z,99.90
2022-12-07T05:58:17.265Z,99.90
2022-12-07T06:00:50.736Z,99.90
2022-12-07T06:03:19.306Z,99.90
2022-12-07T06:05:49.011Z,99.90
2022-12-07T06:08:17.204Z,99.90
2022-12-07T06:10:45.299Z,99.90
2022-12-07T06:13:12.378Z,99.90
2022-12-07T06:15:40.510Z,99.90
2022-12-07T06:18:08.641Z,99.90
2022-12-07T06:20:36.701Z,99.90
2022-12-07T06:23:06.188Z,99.90
2022-12-07T06:25:34.254Z,99.90
2022-12-07T06:28:02.263Z,99.90
2022-12-07T06:30:30.226Z,99.90
2022-12-07T06:32:58.447Z,99.90
2022-12-07T06:35:26.656Z,99.90
2022-12-07T06:37:54.886Z,99.90
2022-12-07T06:40:24.318Z,99.90
2022-12-07T06:42:52.628Z,99.90
2022-12-07T06:45:20.672Z,99.90
2022-12-07T06:47:48.884Z,99.90
2022-12-07T06:50:17.123Z,99.90
2022-12-07T06:52:45.182Z,99.90
2022-12-07T06:55:13.287Z,99.90
2022-12-07T06:57:42.685Z,99.90
2022-12-07T07:00:15.698Z,99.90
2022-12-07T07:02:48.082Z,99.90
2022-12-07T07:05:16.709Z,99.90
2022-12-07T07:08:05.437Z,99.90
2022-12-07T07:10:32.786Z,99.90
2022-12-07T07:13:02.270Z,99.90
2022-12-07T07:15:30.420Z,99.90
2022-12-07T07:18:00.676Z,99.90
2022-12-07T07:20:32.577Z,99.90
2022-12-07T07:23:00.672Z,99.90
2022-12-07T07:25:28.854Z,99.90
2022-12-07T07:27:56.859Z,99.90
2022-12-07T07:30:52.248Z,99.90
2022-12-07T07:33:20.402Z,99.90
2022-12-07T07:35:48.404Z,99.90
2022-12-07T07:38:16.405Z,99.90
2022-12-07T07:40:44.429Z,99.90
2022-12-07T07:43:12.467Z,99.90
2022-12-07T07:45:41.466Z,99.90
2022-12-07T07:48:10.848Z,99.90
2022-12-07T07:50:38.899Z,99.90
2022-12-07T07:53:06.910Z,99.90
2022-12-07T07:55:34.930Z,99.90
2022-12-07T07:58:03.376Z,99.90
2022-12-07T08:00:31.498Z,99.90
2022-12-07T08:03:00.156Z,99.90
2022-12-07T08:05:29.721Z,99.90
2022-12-07T08:07:59.278Z,99.90
2022-12-07T08:10:27.530Z,99.90
2022-12-07T08:13:14.889Z,99.90
2022-12-07T08:15:45.080Z,99.90
2022-12-07T08:18:14.126Z,99.90
2022-12-07T08:20:44.204Z,99.90
2022-12-07T08:23:12.846Z,99.90
2022-12-07T08:25:41.472Z,99.90
2022-12-07T08:28:09.646Z,99.90
2022-12-07T08:30:37.933Z,99.40
2022-12-07T08:33:06.000Z,99.30
2022-12-07T08:35:35.564Z,99.40
2022-12-07T08:38:05.160Z,99.40
2022-12-07T08:40:33.417Z,99.00
2022-12-07T08:43:01.352Z,99.20
2022-12-07T08:45:33.361Z,99.00
2022-12-07T08:48:04.792Z,98.80
2022-12-07T08:50:35.000Z,99.20
2022-12-07T08:53:05.828Z,98.80
2022-12-07T08:55:35.191Z,98.90
2022-12-07T08:58:05.809Z,98.80
2022-12-07T09:00:33.922Z,98.80
2022-12-07T09:03:01.937Z,98.40
2022-12-07T09:05:30.811Z,98.40
2022-12-07T09:08:02.060Z,98.00
2022-12-07T09:10:32.007Z,97.70
2022-12-07T09:13:01.605Z,97.90
2022-12-07T09:15:29.813Z,98.30
2022-12-07T09:17:57.929Z,97.70
2022-12-07T09:20:28.098Z,97.50
2022-12-07T09:22:56.568Z,97.90
2022-12-07T09:25:24.844Z,98.40
2022-12-07T09:27:59.206Z,98.10
2022-12-07T09:30:27.644Z,98.80
2022-12-07T09:32:56.519Z,98.50
2022-12-07T09:35:25.274Z,98.70
2022-12-07T09:37:53.325Z,98.30
2022-12-07T09:40:24.308Z,98.20
2022-12-07T09:42:56.062Z,98.00
2022-12-07T09:45:29.212Z,98.30
2022-12-07T09:47:57.361Z,97.30
2022-12-07T09:50:27.604Z,97.30
2022-12-07T09:53:09.933Z,97.70
2022-12-07T09:55:41.579Z,97.90
2022-12-07T09:58:14.488Z,97.00
2022-12-07T10:00:43.911Z,97.30
2022-12-07T10:03:13.661Z,96.50
2022-12-07T10:05:45.405Z,96.50
2022-12-07T10:08:14.386Z,97.00
2022-12-07T10:10:42.468Z,96.90
2022-12-07T10:13:12.701Z,97.10
2022-12-07T10:15:46.916Z,96.10
2022-12-07T10:18:27.225Z,95.60
2022-12-07T10:21:04.649Z,95.00
2022-12-07T10:23:33.045Z,96.00
2022-12-07T10:26:01.054Z,95.60
2022-12-07T10:28:42.082Z,94.80
2022-12-07T10:31:21.390Z,94.10
2022-12-07T10:33:55.751Z,94.30
2022-12-07T10:36:27.314Z,94.40
2022-12-07T10:39:02.561Z,94.10
2022-12-07T10:41:30.628Z,94.30
2022-12-07T10:43:59.823Z,94.30
2022-12-07T10:47:11.353Z,93.80
2022-12-07T10:50:30.883Z,94.00
2022-12-07T10:53:41.572Z,95.10
2022-12-07T10:56:43.085Z,94.50
2022-12-07T10:59:34.588Z,93.90
2022-12-07T11:02:22.570Z,94.00
2022-12-07T11:05:04.175Z,93.40
2022-12-07T11:07:41.949Z,93.20
2022-12-07T11:10:19.583Z,93.30
2022-12-07T11:13:17.000Z,93.00
2022-12-07T11:15:59.589Z,92.90
2022-12-07T11:18:38.707Z,92.60
2022-12-07T11:21:12.332Z,93.30
2022-12-07T11:23:49.364Z,93.10
2022-12-07T11:26:27.146Z,93.20
2022-12-07T11:29:16.864Z,91.90
2022-12-07T11:31:57.459Z,92.00
2022-12-07T11:34:33.578Z,91.40
2022-12-07T11:37:05.991Z,90.80
2022-12-07T11:39:37.703Z,91.00
2022-12-07T11:42:08.919Z,91.00
2022-12-07T11:44:42.230Z,91.40
2022-12-07T11:47:16.240Z,91.20
2022-12-07T11:49:53.386Z,91.10
2022-12-07T11:52:28.546Z,91.10
2022-12-07T11:54:57.022Z,91.10
2022-12-07T11:57:32.489Z,91.20
2022-12-07T12:00:06.123Z,89.80
2022-12-07T12:02:39.462Z,90.00
2022-12-07T12:05:17.329Z,90.10
2022-12-07T12:10:54.398Z,90.60
2022-12-07T12:17:13.795Z,90.50
2022-12-07T12:19:46.448Z,90.60
2022-12-07T12:22:20.440Z,91.00
2022-12-07T12:24:52.079Z,90.40
2022-12-07T12:27:25.431Z,90.80
2022-12-07T12:29:57.459Z,91.20
2022-12-07T12:32:38.213Z,90.80
2022-12-07T12:35:29.918Z,90.70
2022-12-07T12:38:26.792Z,90.90
2022-12-07T12:40:55.320Z,91.30
2022-12-07T12:43:53.385Z,91.50
2022-12-07T12:46:50.917Z,91.20
2022-12-07T12:50:02.078Z,90.60
2022-12-07T12:52:52.418Z,90.30
2022-12-07T12:55:31.629Z,90.80
2022-12-07T12:58:30.462Z,91.30
2022-12-07T13:01:36.157Z,90.90
2022-12-07T13:04:16.365Z,90.30
2022-12-07T13:06:44.729Z,91.10
2022-12-07T13:09:23.561Z,91.60
2022-12-07T13:12:00.340Z,91.90
2022-12-07T13:14:57.774Z,92.00
2022-12-07T13:17:58.930Z,91.50
2022-12-07T13:20:53.613Z,91.60
2022-12-07T13:23:25.351Z,91.70
2022-12-07T13:26:02.952Z,91.90
2022-12-07T13:28:40.486Z,92.20
2022-12-07T13:31:34.427Z,92.40
2022-12-07T13:34:04.116Z,92.00
2022-12-07T13:36:36.708Z,92.30
2022-12-07T13:39:19.800Z,92.40
2022-12-07T13:41:52.692Z,92.10
2022-12-07T13:44:22.330Z,92.20
2022-12-07T13:47:23.717Z,92.00
2022-12-07T13:49:54.412Z,92.30
2022-12-07T13:52:25.257Z,92.50
2022-12-07T13:55:00.012Z,91.60
2022-12-07T13:57:31.973Z,91.80
2022-12-07T14:00:02.211Z,92.10
2022-12-07T14:02:36.368Z,92.20
2022-12-07T14:05:12.109Z,92.90
2022-12-07T14:07:51.607Z,93.00
2022-12-07T14:10:27.733Z,93.20
2022-12-07T14:12:57.649Z,93.50
2022-12-07T14:15:31.475Z,93.50
2022-12-07T14:18:04.366Z,93.30
2022-12-07T14:20:34.040Z,93.50
2022-12-07T14:23:09.905Z,94.10
2022-12-07T14:25:51.194Z,94.30
2022-12-07T14:28:30.808Z,94.10
2022-12-07T14:31:00.359Z,94.40
2022-12-07T14:33:29.834Z,93.80
2022-12-07T14:35:59.162Z,93.60
2022-12-07T14:38:28.101Z,93.20
2022-12-07T14:41:18.086Z,93.20
2022-12-07T14:44:07.140Z,92.50
2022-12-07T14:46:35.580Z,92.60
2022-12-07T14:54:40.040Z,92.90
2022-12-07T14:57:10.452Z,93.20
2022-12-07T14:59:43.295Z,93.20
2022-12-07T15:02:16.377Z,93.40
2022-12-07T15:04:44.721Z,93.40
2022-12-07T15:07:22.453Z,93.40
2022-12-07T15:09:50.714Z,92.90
2022-12-07T15:12:18.731Z,92.90
2022-12-07T15:14:46.844Z,93.30
2022-12-07T15:17:27.721Z,92.50
2022-12-07T15:19:59.623Z,92.50
2022-12-07T15:22:27.682Z,92.60
2022-12-07T15:24:55.703Z,92.80
2022-12-07T15:27:23.703Z,93.10
2022-12-07T15:29:51.842Z,93.20
2022-12-07T15:32:21.317Z,93.50
2022-12-07T15:34:50.927Z,93.60
2022-12-07T15:37:19.162Z,93.30
2022-12-07T15:39:47.214Z,93.50
2022-12-07T15:42:15.383Z,93.30
2022-12-07T15:45:01.254Z,93.20
2022-12-07T15:47:31.377Z,93.20
2022-12-07T15:49:59.354Z,93.40
2022-12-07T15:52:27.568Z,93.50
2022-12-07T15:54:55.870Z,93.20
2022-12-07T15:57:25.669Z,93.10
2022-12-07T15:59:54.483Z,93.00
2022-12-07T16:02:23.557Z,93.00
2022-12-07T16:04:53.884Z,93.00
2022-12-07T16:07:23.068Z,92.70
2022-12-07T16:10:00.188Z,92.90
2022-12-07T16:12:31.904Z,92.90
2022-12-07T16:15:01.194Z,93.10
2022-12-07T16:17:29.738Z,93.20
2022-12-07T16:19:59.122Z,93.30
2022-12-07T16:22:27.226Z,93.40
2022-12-07T16:24:55.443Z,93.40
2022-12-07T16:27:23.426Z,93.30
2022-12-07T16:29:51.528Z,93.40
2022-12-07T16:32:19.577Z,93.20
2022-12-07T16:34:47.625Z,93.20
2022-12-07T16:37:17.192Z,93.40
2022-12-07T16:39:45.182Z,93.40
2022-12-07T16:42:13.265Z,93.70
2022-12-07T16:44:42.359Z,93.60
2022-12-07T16:47:10.938Z,93.60
2022-12-07T16:49:39.220Z,93.50
2022-12-07T16:52:22.658Z,93.60
2022-12-07T16:54:52.597Z,93.50
2022-12-07T16:57:23.487Z,93.70
2022-12-07T16:59:52.723Z,93.70
2022-12-07T17:02:21.894Z,93.70
2022-12-07T17:04:49.898Z,93.60
2022-12-07T17:07:18.017Z,93.70
2022-12-07T17:09:46.103Z,93.50
2022-12-07T17:12:15.719Z,93.80
2022-12-07T17:15:01.496Z,93.90
2022-12-07T17:17:29.755Z,93.90
2022-12-07T17:19:57.892Z,93.90
2022-12-07T17:22:25.918Z,93.80
2022-12-07T17:24:53.964Z,94.00
2022-12-07T17:27:23.367Z,94.00
2022-12-07T17:29:51.444Z,94.10
2022-12-07T17:32:19.574Z,94.20
2022-12-07T17:34:47.608Z,94.40
2022-12-07T17:37:15.698Z,94.50
2022-12-07T17:39:43.761Z,94.70
2022-12-07T17:42:29.159Z,94.70
2022-12-07T17:45:27.522Z,94.80
2022-12-07T17:47:55.750Z,94.70
2022-12-07T17:50:43.860Z,94.80
2022-12-07T17:53:12.288Z,94.50
2022-12-07T17:56:19.713Z,94.70
2022-12-07T17:58:29.350Z,94.70
2022-12-07T18:00:58.801Z,94.60
2022-12-07T18:03:27.166Z,94.60
2022-12-07T18:05:55.125Z,94.40
2022-12-07T18:08:23.385Z,94.50
2022-12-07T18:10:51.463Z,94.50
2022-12-07T18:13:38.080Z,94.50
2022-12-07T18:16:10.684Z,94.70
2022-12-07T18:18:39.822Z,94.70
2022-12-07T18:21:13.976Z,94.80
2022-12-07T18:23:42.493Z,94.80
2022-12-07T18:26:10.496Z,94.90
2022-12-07T18:28:38.581Z,95.00
2022-12-07T18:31:16.108Z,94.90
2022-12-07T18:33:46.340Z,94.70
2022-12-07T18:36:15.267Z,94.80
2022-12-07T18:38:43.365Z,95.10
2022-12-07T18:41:13.934Z,95.00
2022-12-07T18:43:42.362Z,95.20
2022-12-07T18:46:17.224Z,95.20
2022-12-07T18:48:45.489Z,95.10
2022-12-07T18:51:18.998Z,95.10
2022-12-07T18:53:47.367Z,95.00
2022-12-07T18:56:18.507Z,95.10
2022-12-07T18:59:08.574Z,95.40
2022-12-07T19:01:38.394Z,95.30
2022-12-07T19:04:07.124Z,95.20
2022-12-07T19:06:35.916Z,95.00
2022-12-07T19:09:04.557Z,95.20
2022-12-07T19:11:52.730Z,95.30
2022-12-07T19:14:24.617Z,95.30
2022-12-07T19:16:56.013Z,95.50
2022-12-07T19:19:26.605Z,95.70
2022-12-07T19:21:54.728Z,95.90
2022-12-07T19:24:23.982Z,95.80
2022-12-07T19:26:52.178Z,95.70
2022-12-07T19:29:20.413Z,95.80
2022-12-07T19:31:48.848Z,95.60
2022-12-07T19:34:18.818Z,95.80
2022-12-07T19:36:47.712Z,95.90
2022-12-07T19:39:16.412Z,96.00
2022-12-07T19:41:45.270Z,95.60
2022-12-07T19:44:15.959Z,95.80
2022-12-07T19:46:46.838Z,95.90
2022-12-07T19:49:16.253Z,95.90
2022-12-07T19:51:47.398Z,95.70
2022-12-07T19:54:17.305Z,95.70
2022-12-07T19:56:46.974Z,95.70
2022-12-07T19:59:15.959Z,95.80
2022-12-07T20:01:44.579Z,95.70
2022-12-07T20:04:16.679Z,96.00
2022-12-07T20:06:46.643Z,96.10
2022-12-07T20:09:14.748Z,96.00
2022-12-07T20:12:00.084Z,96.10
2022-12-07T20:14:28.286Z,96.10
2022-12-07T20:16:56.650Z,96.20
2022-12-07T20:19:24.862Z,96.00
2022-12-07T20:21:54.389Z,96.00
2022-12-07T20:24:24.705Z,96.00
2022-12-07T20:26:54.313Z,96.10
2022-12-07T20:29:23.969Z,96.20
2022-12-07T20:31:53.354Z,96.20
2022-12-07T20:34:22.098Z,96.30
2022-12-07T20:36:50.403Z,96.30
2022-12-07T20:39:19.848Z,96.40
2022-12-07T20:42:05.277Z,96.50
2022-12-07T20:44:34.911Z,96.60
2022-12-07T20:47:03.348Z,96.60
2022-12-07T20:49:31.614Z,96.70
2022-12-07T20:51:59.614Z,96.80
2022-12-07T20:54:29.359Z,97.00
2022-12-07T20:56:57.385Z,97.20
2022-12-07T20:59:25.764Z,97.30
2022-12-07T21:01:54.415Z,97.30
2022-12-07T21:04:22.440Z,97.50
2022-12-07T21:06:50.572Z,97.60
2022-12-07T21:09:19.736Z,97.80
2022-12-07T21:11:49.178Z,97.90
2022-12-07T21:14:17.216Z,98.00
2022-12-07T21:16:45.214Z,98.10
2022-12-07T21:19:13.248Z,98.10
2022-12-07T21:21:41.272Z,98.10
2022-12-07T21:24:09.586Z,98.20
2022-12-07T21:26:38.133Z,98.20
2022-12-07T21:29:08.627Z,98.30
2022-12-07T21:31:36.916Z,98.60
2022-12-07T21:34:05.364Z,98.50
2022-12-07T21:36:33.874Z,98.60
2022-12-07T21:39:02.002Z,98.70
2022-12-07T21:41:31.768Z,98.70
2022-12-07T21:44:00.441Z,98.80
2022-12-07T21:46:34.218Z,98.70
2022-12-07T21:49:04.316Z,99.00
2022-12-07T21:51:32.915Z,98.70
2022-12-07T21:54:02.215Z,98.70
2022-12-07T21:56:32.292Z,98.80
2022-12-07T21:59:03.577Z,98.70
2022-12-07T22:01:37.671Z,98.70
2022-12-07T22:04:07.173Z,98.80
2022-12-07T22:06:36.647Z,98.70
2022-12-07T22:09:06.595Z,98.70
2022-12-07T22:11:34.903Z,98.80
2022-12-07T22:14:21.299Z,98.80
2022-12-07T22:16:50.684Z,98.90
2022-12-07T22:19:18.811Z,98.90
2022-12-07T22:21:46.944Z,98.80
2022-12-07T22:24:15.895Z,98.90
2022-12-07T22:26:45.234Z,98.90
2022-12-07T22:29:13.706Z,98.90
2022-12-07T22:31:42.057Z,99.10
2022-12-07T22:34:16.359Z,99.20
2022-12-07T22:36:44.931Z,99.20
2022-12-07T22:39:13.114Z,99.30
2022-12-07T22:41:41.506Z,99.40
2022-12-07T22:44:10.054Z,99.40
2022-12-07T22:46:39.178Z,99.50
2022-12-07T22:49:07.814Z,99.50
2022-12-07T22:51:39.067Z,99.50
2022-12-07T22:54:09.999Z,99.60
2022-12-07T22:56:39.179Z,99.60
2022-12-07T22:59:07.601Z,99.80
2022-12-07T23:01:36.733Z,99.90
2022-12-07T23:04:05.370Z,99.90
2022-12-07T23:06:36.246Z,99.90
2022-12-07T23:09:07.791Z,99.90
2022-12-07T23:12:08.762Z,99.90
2022-12-07T23:14:39.218Z,99.90
2022-12-07T23:17:07.315Z,99.90
2022-12-07T23:19:35.470Z,99.90
2022-12-07T23:22:03.550Z,99.90
2022-12-07T23:24:33.020Z,99.90
2022-12-07T23:27:01.135Z,99.90
2022-12-07T23:29:29.242Z,99.90
2022-12-07T23:31:57.454Z,99.90
2022-12-07T23:34:25.653Z,99.90
2022-12-07T23:36:53.650Z,99.90
2022-12-07T23:39:21.778Z,99.90
2022-12-07T23:41:51.148Z,99.90
2022-12-07T23:44:19.430Z,99.90
2022-12-07T23:46:47.691Z,99.90
2022-12-07T23:49:15.795Z,99.90
2022-12-07T23:51:43.896Z,99.90
2022-12-07T23:54:12.254Z,99.90
2022-12-07T23:56:40.502Z,99.90
2022-12-07T23:59:12.314Z,99.90
